Time;durP1;ratioP1;P1;durP2;ratioP2;P2;SDS_P1;SDS_P2;PMS_P1;PMS_P2;Temp;Humidity;BMP_temperature;BMP_pressure;BME280_temperature;BME280_humidity;BME280_pressure;Samples;Min_cycle;Max_cycle;Signal;HPM_P1;HPM_P2
2023/09/15 00:01:05;;;;;;;5.43;4.00;;;19.40;99.90;;;;;;5025143;28;20188;-78
2023/09/15 00:03:31;;;;;;;5.13;4.03;;;19.40;99.90;;;;;;5023183;28;20461;-78
2023/09/15 00:05:57;;;;;;;5.00;3.90;;;19.30;99.90;;;;;;5021158;28;20192;-78
2023/09/15 00:08:22;;;;;;;6.50;3.47;;;19.30;99.90;;;;;;5023456;28;20677;-78
2023/09/15 00:10:48;;;;;;;5.50;3.87;;;19.30;99.90;;;;;;5030273;28;20426;-78
2023/09/15 00:13:15;;;;;;;5.47;3.23;;;19.30;99.90;;;;;;5013832;28;20690;-77
2023/09/15 00:15:41;;;;;;;9.03;4.00;;;19.30;99.90;;;;;;5028183;28;20209;-77
2023/09/15 00:18:07;;;;;;;6.17;3.20;;;19.30;99.90;;;;;;5006117;28;21012;-77
2023/09/15 00:20:32;;;;;;;6.87;3.57;;;19.20;99.90;;;;;;5029194;28;20226;-78
2023/09/15 00:22:59;;;;;;;7.20;3.67;;;19.20;99.90;;;;;;5025171;28;20239;-78
2023/09/15 00:25:29;;;;;;;5.03;3.43;;;19.20;99.90;;;;;;5030996;28;20779;-79
2023/09/15 00:27:57;;;;;;;6.90;3.70;;;19.20;99.90;;;;;;5025019;28;20452;-79
2023/09/15 00:30:24;;;;;;;6.50;3.70;;;19.10;99.90;;;;;;5024495;28;20818;-79
2023/09/15 00:32:51;;;;;;;5.33;3.10;;;19.10;99.90;;;;;;5023491;28;20464;-79
2023/09/15 00:35:19;;;;;;;4.10;3.20;;;19.10;99.90;;;;;;5021382;28;20478;-79
2023/09/15 00:37:46;;;;;;;6.07;4.13;;;19.10;99.90;;;;;;5006046;28;20522;-79
2023/09/15 00:40:15;;;;;;;6.20;4.00;;;19.10;99.90;;;;;;5025014;28;20513;-79
2023/09/15 00:42:42;;;;;;;7.43;4.30;;;19.00;99.90;;;;;;5028026;28;20466;-77
2023/09/15 00:45:11;;;;;;;7.23;3.67;;;19.00;99.90;;;;;;5026950;28;20415;-77
2023/09/15 00:47:38;;;;;;;6.27;3.60;;;19.00;99.90;;;;;;5027428;28;20469;-77
2023/09/15 00:50:05;;;;;;;5.50;3.60;;;19.00;99.90;;;;;;5013082;28;20947;-77
2023/09/15 00:52:33;;;;;;;6.50;4.10;;;19.00;99.90;;;;;;5040685;28;20472;-78
2023/09/15 00:54:59;;;;;;;7.83;3.77;;;18.90;99.90;;;;;;5024777;28;21053;-77
2023/09/15 00:57:26;;;;;;;8.63;4.70;;;18.90;99.90;;;;;;5032564;28;20866;-77
2023/09/15 00:59:53;;;;;;;7.00;3.60;;;18.90;99.90;;;;;;5027610;28;20466;-75
2023/09/15 01:02:19;;;;;;;6.47;4.40;;;18.90;99.90;;;;;;5022496;28;20508;-77
2023/09/15 01:04:45;;;;;;;5.93;3.50;;;18.90;99.90;;;;;;5021139;28;20443;-77
2023/09/15 01:07:12;;;;;;;5.87;4.07;;;18.90;99.90;;;;;;5022845;28;20454;-77
2023/09/15 01:09:39;;;;;;;6.80;3.70;;;18.80;99.90;;;;;;5011877;28;20479;-77
2023/09/15 01:12:06;;;;;;;7.33;4.20;;;18.80;99.90;;;;;;5021850;28;20944;-77
2023/09/15 01:14:32;;;;;;;8.10;3.90;;;18.80;99.90;;;;;;5021371;28;20513;-77
2023/09/15 01:17:06;;;;;;;5.73;4.03;;;18.80;99.90;;;;;;5015766;28;20463;-77
2023/09/15 01:19:59;;;;;;;4.57;3.97;;;18.80;99.90;;;;;;5028478;28;20187;-77
2023/09/15 01:22:55;;;;;;;6.27;3.47;;;18.80;99.90;;;;;;5029043;28;20463;-78
2023/09/15 01:25:57;;;;;;;9.00;4.23;;;18.70;99.90;;;;;;5024281;28;20438;-77
2023/09/15 01:29:14;;;;;;;6.77;3.80;;;18.70;99.90;;;;;;4948381;28;20976;-77
2023/09/15 01:31:42;;;;;;;5.80;4.33;;;18.70;99.90;;;;;;5019199;22;20936;-73
2023/09/15 01:34:13;;;;;;;9.53;4.70;;;18.70;99.90;;;;;;5035469;28;20515;-73
2023/09/15 01:36:38;;;;;;;7.83;3.40;;;18.60;99.90;;;;;;5017308;28;20466;-73
2023/09/15 01:39:04;;;;;;;6.00;4.50;;;18.50;99.90;;;;;;4999700;28;20493;-73
2023/09/15 01:41:30;;;;;;;7.67;4.47;;;18.50;99.90;;;;;;5020118;28;20568;-73
2023/09/15 01:43:56;;;;;;;5.30;4.10;;;18.50;99.90;;;;;;5020157;28;20188;-72
2023/09/15 01:46:23;;;;;;;6.20;3.87;;;18.50;99.90;;;;;;5034697;28;20437;-72
2023/09/15 01:48:59;;;;;;;5.47;4.10;;;18.50;99.90;;;;;;5001193;28;20184;-73
2023/09/15 01:51:25;;;;;;;7.83;4.20;;;18.40;99.90;;;;;;5018256;28;21231;-73
2023/09/15 01:53:51;;;;;;;7.00;4.50;;;18.40;99.90;;;;;;5020047;28;20446;-73
2023/09/15 01:56:18;;;;;;;6.50;3.87;;;18.40;99.90;;;;;;5018496;28;20497;-73
2023/09/15 01:58:44;;;;;;;5.73;4.00;;;18.40;99.90;;;;;;5021366;28;20855;-73
2023/09/15 02:01:09;;;;;;;5.67;4.07;;;18.30;99.90;;;;;;5033199;28;20442;-73
2023/09/15 02:03:35;;;;;;;5.70;3.93;;;18.30;99.90;;;;;;5017169;28;20475;-73
2023/09/15 02:06:04;;;;;;;4.80;3.80;;;18.20;99.90;;;;;;5026321;28;20220;-73
2023/09/15 02:08:30;;;;;;;6.60;4.23;;;18.20;99.90;;;;;;5015748;28;20186;-74
2023/09/15 02:10:56;;;;;;;4.83;4.13;;;18.20;99.90;;;;;;5018789;28;20477;-74
2023/09/15 02:13:21;;;;;;;8.80;4.50;;;18.10;99.90;;;;;;5013735;28;21041;-74
2023/09/15 02:15:47;;;;;;;7.43;4.20;;;18.10;99.90;;;;;;5020511;28;20223;-72
2023/09/15 02:18:13;;;;;;;5.40;4.00;;;18.10;99.90;;;;;;5017719;28;20265;-73
2023/09/15 02:20:39;;;;;;;6.67;3.83;;;18.10;99.90;;;;;;5016921;28;20188;-74
2023/09/15 02:23:05;;;;;;;6.70;4.27;;;18.10;99.90;;;;;;5008466;28;20808;-73
2023/09/15 02:25:31;;;;;;;5.73;3.80;;;18.10;99.90;;;;;;5012053;28;20442;-72
2023/09/15 02:27:57;;;;;;;5.47;4.20;;;18.00;99.90;;;;;;5010140;28;20188;-73
2023/09/15 02:30:23;;;;;;;5.50;3.80;;;18.00;99.90;;;;;;5013673;28;20958;-72
2023/09/15 02:32:48;;;;;;;5.67;4.20;;;17.90;99.90;;;;;;5018389;28;20532;-72
2023/09/15 02:35:14;;;;;;;5.67;3.63;;;17.90;99.90;;;;;;5015915;28;20689;-72
2023/09/15 02:37:40;;;;;;;7.97;4.30;;;17.90;99.90;;;;;;5018624;28;20189;-72
2023/09/15 02:40:07;;;;;;;5.50;4.37;;;17.80;99.90;;;;;;4996376;28;20196;-72
2023/09/15 02:42:35;;;;;;;5.80;4.10;;;17.90;99.90;;;;;;5020802;28;20212;-73
2023/09/15 02:45:01;;;;;;;5.10;3.90;;;17.80;99.90;;;;;;5020033;28;20510;-74
2023/09/15 02:47:29;;;;;;;5.47;4.00;;;17.80;99.90;;;;;;5017495;28;20632;-73
2023/09/15 02:49:55;;;;;;;4.43;3.47;;;17.80;99.90;;;;;;5013013;28;20442;-74
2023/09/15 02:52:20;;;;;;;5.03;4.20;;;17.80;99.90;;;;;;5016099;28;20564;-74
2023/09/15 02:54:48;;;;;;;5.50;4.17;;;17.70;99.90;;;;;;5023408;28;20197;-74
2023/09/15 02:57:14;;;;;;;5.00;3.70;;;17.70;99.90;;;;;;5018620;28;20193;-73
2023/09/15 02:59:39;;;;;;;5.00;3.70;;;17.70;99.90;;;;;;5001403;28;21065;-74
2023/09/15 03:02:05;;;;;;;5.23;3.80;;;17.70;99.90;;;;;;5012864;28;20597;-73
2023/09/15 03:04:30;;;;;;;5.13;3.53;;;17.70;99.90;;;;;;5015474;28;20721;-76
2023/09/15 03:06:56;;;;;;;10.20;3.60;;;17.60;99.90;;;;;;5015826;28;20188;-74
2023/09/15 03:09:21;;;;;;;4.37;3.60;;;17.60;99.90;;;;;;5014287;28;20200;-74
2023/09/15 03:11:47;;;;;;;8.30;3.90;;;17.60;99.90;;;;;;5014692;28;20225;-73
2023/09/15 03:14:13;;;;;;;8.07;4.40;;;17.60;99.90;;;;;;5018355;28;20250;-73
2023/09/15 03:16:42;;;;;;;9.63;4.30;;;17.50;99.90;;;;;;5015335;28;20189;-73
2023/09/15 03:19:07;;;;;;;7.47;4.10;;;17.50;99.90;;;;;;5014265;28;20613;-73
2023/09/15 03:21:33;;;;;;;7.17;4.10;;;17.50;99.90;;;;;;5014540;28;20505;-73
2023/09/15 03:24:00;;;;;;;5.47;4.07;;;17.50;99.90;;;;;;5013166;28;20211;-73
2023/09/15 03:26:26;;;;;;;7.50;4.20;;;17.50;99.90;;;;;;5014814;28;20443;-73
2023/09/15 03:28:51;;;;;;;6.53;4.50;;;17.50;99.90;;;;;;5017673;28;20550;-72
2023/09/15 03:31:17;;;;;;;6.90;4.17;;;17.40;99.90;;;;;;4992554;28;20287;-72
2023/09/15 03:33:42;;;;;;;5.27;4.13;;;17.40;99.90;;;;;;5017472;28;20292;-73
2023/09/15 03:36:09;;;;;;;5.93;3.83;;;17.40;99.90;;;;;;5028547;28;20555;-72
2023/09/15 03:38:34;;;;;;;6.87;3.73;;;17.30;99.90;;;;;;5015907;28;20192;-73
2023/09/15 03:41:00;;;;;;;7.63;4.27;;;17.30;99.90;;;;;;5013660;28;20466;-74
2023/09/15 03:43:25;;;;;;;5.60;4.10;;;17.30;99.90;;;;;;5015838;28;20180;-74
2023/09/15 03:45:52;;;;;;;5.83;4.10;;;17.30;99.90;;;;;;5021303;28;20529;-72
2023/09/15 03:48:18;;;;;;;5.13;3.93;;;17.30;99.90;;;;;;5016372;28;20212;-73
2023/09/15 03:50:44;;;;;;;6.30;4.10;;;17.20;99.90;;;;;;5015948;28;20453;-73
2023/09/15 03:53:10;;;;;;;5.70;4.07;;;17.20;99.90;;;;;;5011088;28;20442;-73
2023/09/15 03:55:36;;;;;;;6.00;4.73;;;17.20;99.90;;;;;;4998337;28;20300;-73
2023/09/15 03:58:03;;;;;;;7.53;4.30;;;17.20;99.90;;;;;;5014146;28;20431;-73
2023/09/15 04:00:29;;;;;;;5.50;4.37;;;17.20;99.90;;;;;;5016089;28;20267;-73
2023/09/15 04:02:54;;;;;;;7.10;3.90;;;17.20;99.90;;;;;;5014680;28;20608;-73
2023/09/15 04:05:20;;;;;;;8.00;4.57;;;17.10;99.90;;;;;;5010654;28;20191;-73
2023/09/15 04:07:46;;;;;;;5.67;4.00;;;17.10;99.90;;;;;;5014050;28;20197;-73
2023/09/15 04:10:12;;;;;;;7.87;4.20;;;17.10;99.90;;;;;;5027644;28;20566;-73
2023/09/15 04:12:38;;;;;;;5.80;4.47;;;17.10;99.90;;;;;;5015904;28;20205;-74
2023/09/15 04:15:04;;;;;;;5.67;4.30;;;17.10;99.90;;;;;;5015732;28;20459;-74
2023/09/15 04:17:31;;;;;;;7.20;4.40;;;17.10;99.90;;;;;;5013506;28;20431;-73
2023/09/15 04:19:58;;;;;;;5.97;3.80;;;17.10;99.90;;;;;;5015882;28;21265;-73
2023/09/15 04:22:25;;;;;;;6.10;4.67;;;17.10;99.90;;;;;;5012732;28;20569;-73
2023/09/15 04:24:51;;;;;;;5.97;3.67;;;17.00;99.90;;;;;;5013779;28;20854;-74
2023/09/15 04:27:16;;;;;;;7.10;4.63;;;17.00;99.90;;;;;;5012242;28;20443;-75
2023/09/15 04:29:57;;;;;;;6.43;4.83;;;16.90;99.90;;;;;;5016904;28;20220;-74
2023/09/15 04:32:23;;;;;;;5.30;4.30;;;16.90;99.90;;;;;;5012730;28;20606;-74
2023/09/15 04:34:50;;;;;;;10.23;4.57;;;17.00;99.90;;;;;;5030942;28;20467;-74
2023/09/15 04:37:15;;;;;;;7.40;4.40;;;16.90;99.90;;;;;;5015507;28;20437;-75
2023/09/15 04:39:41;;;;;;;4.80;3.70;;;16.90;99.90;;;;;;5018419;28;20514;-73
2023/09/15 04:42:07;;;;;;;7.83;4.03;;;16.90;99.90;;;;;;5018349;28;20196;-74
2023/09/15 04:44:33;;;;;;;5.43;4.00;;;16.90;99.90;;;;;;5017850;28;20196;-74
2023/09/15 04:47:00;;;;;;;6.87;4.23;;;16.90;99.90;;;;;;5016868;28;20192;-73
2023/09/15 04:49:26;;;;;;;7.40;5.00;;;16.90;99.90;;;;;;5018613;28;20194;-73
2023/09/15 04:51:51;;;;;;;5.70;4.50;;;16.80;99.90;;;;;;5015375;28;20466;-74
2023/09/15 04:54:17;;;;;;;8.37;5.20;;;16.80;99.90;;;;;;5014604;28;20565;-73
2023/09/15 04:56:42;;;;;;;6.53;5.77;;;16.80;99.90;;;;;;5030711;28;20189;-74
2023/09/15 04:59:15;;;;;;;6.30;4.40;;;16.80;99.90;;;;;;5014115;28;20188;-74
2023/09/15 05:01:44;;;;;;;5.73;4.23;;;16.70;99.90;;;;;;5015934;28;20200;-74
2023/09/15 05:04:10;;;;;;;8.33;4.80;;;16.80;99.90;;;;;;5027507;28;20447;-74
2023/09/15 05:06:37;;;;;;;5.50;3.80;;;16.70;99.90;;;;;;5012497;28;20446;-74
2023/09/15 05:09:08;;;;;;;8.30;5.00;;;16.60;99.90;;;;;;5017460;28;20942;-73
2023/09/15 05:11:37;;;;;;;5.73;3.93;;;16.60;99.90;;;;;;5018451;28;20462;-74
2023/09/15 05:14:03;;;;;;;7.47;4.63;;;16.60;99.90;;;;;;5013597;28;20560;-74
2023/09/15 05:16:30;;;;;;;8.13;5.67;;;16.60;99.90;;;;;;5019005;28;20431;-74
2023/09/15 05:18:56;;;;;;;6.10;3.63;;;16.60;99.90;;;;;;5013244;28;20513;-74
2023/09/15 05:21:22;;;;;;;5.97;4.23;;;16.60;99.90;;;;;;5015366;28;20454;-74
2023/09/15 05:23:47;;;;;;;5.17;4.20;;;16.60;99.90;;;;;;5018538;28;20450;-74
2023/09/15 05:26:13;;;;;;;6.20;4.10;;;16.70;99.90;;;;;;5014430;28;20432;-76
2023/09/15 05:28:39;;;;;;;7.00;4.40;;;16.70;99.90;;;;;;4997365;28;20188;-72
2023/09/15 05:31:04;;;;;;;6.67;4.77;;;16.70;99.90;;;;;;5018779;28;20205;-74
2023/09/15 05:33:30;;;;;;;7.53;4.27;;;16.60;99.90;;;;;;5019048;28;20192;-74
2023/09/15 05:35:56;;;;;;;5.17;4.63;;;16.60;99.90;;;;;;5019541;28;20213;-73
2023/09/15 05:38:23;;;;;;;5.80;4.40;;;16.60;99.90;;;;;;5018913;28;20177;-74
2023/09/15 05:40:49;;;;;;;7.10;3.90;;;16.50;99.90;;;;;;5019765;28;20423;-74
2023/09/15 05:43:18;;;;;;;5.70;4.70;;;16.50;99.90;;;;;;5014244;28;20438;-75
2023/09/15 05:45:45;;;;;;;7.77;5.20;;;16.50;99.90;;;;;;5013635;28;20450;-74
2023/09/15 05:48:13;;;;;;;8.20;4.30;;;16.50;99.90;;;;;;5011642;28;20451;-74
2023/09/15 05:50:39;;;;;;;8.43;4.30;;;16.50;99.90;;;;;;5029504;28;21057;-75
2023/09/15 05:53:05;;;;;;;9.97;4.70;;;16.60;99.90;;;;;;5014832;28;20553;-74
2023/09/15 05:55:32;;;;;;;8.43;5.77;;;16.60;99.90;;;;;;5018412;28;20200;-75
2023/09/15 05:57:58;;;;;;;5.03;4.00;;;16.60;99.90;;;;;;5016939;28;20901;-75
2023/09/15 06:00:23;;;;;;;9.90;5.40;;;16.60;99.90;;;;;;4997771;28;20482;-75
2023/09/15 06:02:49;;;;;;;9.70;4.60;;;16.60;99.90;;;;;;5018432;28;20250;-73
2023/09/15 06:05:17;;;;;;;9.50;4.50;;;16.50;99.90;;;;;;5016546;28;20227;-75
2023/09/15 06:07:42;;;;;;;6.07;4.27;;;16.60;99.90;;;;;;5010351;28;20254;-75
2023/09/15 06:10:09;;;;;;;8.30;4.37;;;16.60;99.90;;;;;;5017376;28;20477;-75
2023/09/15 06:12:35;;;;;;;6.67;5.40;;;16.60;99.90;;;;;;5016425;28;20785;-75
2023/09/15 06:15:00;;;;;;;5.53;4.53;;;16.60;99.90;;;;;;4998932;28;20472;-75
2023/09/15 06:17:27;;;;;;;5.07;3.97;;;16.60;99.90;;;;;;5017099;28;20191;-75
2023/09/15 06:19:53;;;;;;;7.20;5.43;;;16.60;99.90;;;;;;5017197;28;20248;-75
2023/09/15 06:22:19;;;;;;;5.60;4.60;;;16.60;99.90;;;;;;5014198;28;21049;-76
2023/09/15 06:24:45;;;;;;;7.10;4.43;;;16.70;99.90;;;;;;5017639;28;20518;-75
2023/09/15 06:27:10;;;;;;;8.97;4.67;;;16.70;99.90;;;;;;5013008;28;20188;-75
2023/09/15 06:29:36;;;;;;;8.73;5.50;;;16.70;99.90;;;;;;5017152;28;20280;-75
2023/09/15 06:32:02;;;;;;;6.23;4.77;;;16.80;99.90;;;;;;5013373;28;20216;-75
2023/09/15 06:34:27;;;;;;;7.47;4.27;;;16.80;99.90;;;;;;5014630;28;20693;-74
2023/09/15 06:36:53;;;;;;;13.00;10.77;;;16.90;99.90;;;;;;5009043;28;20605;-74
2023/09/15 06:39:22;;;;;;;8.20;6.70;;;16.90;99.90;;;;;;5015985;28;20947;-75
2023/09/15 06:41:48;;;;;;;6.80;5.87;;;17.00;99.90;;;;;;5020504;28;20710;-74
2023/09/15 06:44:13;;;;;;;5.43;4.90;;;17.00;99.90;;;;;;5016143;28;20437;-74
2023/09/15 06:46:39;;;;;;;6.23;4.73;;;17.00;99.90;;;;;;4989320;28;20591;-74
2023/09/15 06:49:04;;;;;;;7.17;5.30;;;17.00;99.90;;;;;;5002232;28;20204;-75
2023/09/15 06:51:32;;;;;;;6.67;4.33;;;17.10;99.90;;;;;;5014960;28;20293;-75
2023/09/15 06:53:58;;;;;;;9.43;4.07;;;17.10;99.90;;;;;;5013785;28;20671;-75
2023/09/15 06:56:23;;;;;;;8.27;4.70;;;17.10;99.90;;;;;;5031118;28;20438;-75
2023/09/15 06:58:49;;;;;;;6.17;3.97;;;17.10;99.90;;;;;;4995318;28;20406;-75
2023/09/15 07:01:15;;;;;;;5.83;4.40;;;17.10;99.90;;;;;;5001900;28;20208;-73
2023/09/15 07:03:40;;;;;;;11.60;5.73;;;17.20;99.90;;;;;;5008568;28;22236;-73
2023/09/15 07:06:06;;;;;;;6.43;5.73;;;17.20;99.90;;;;;;5004051;28;20245;-74
2023/09/15 07:08:32;;;;;;;7.70;5.87;;;17.30;99.90;;;;;;4994307;28;20759;-75
2023/09/15 07:10:58;;;;;;;9.80;5.17;;;17.30;99.90;;;;;;5008694;28;20189;-73
2023/09/15 07:13:23;;;;;;;5.53;4.93;;;17.40;99.90;;;;;;5014156;28;21463;-74
2023/09/15 07:15:49;;;;;;;8.87;7.43;;;17.40;99.90;;;;;;5019794;28;20707;-75
2023/09/15 07:18:15;;;;;;;5.70;4.97;;;17.50;99.90;;;;;;4999717;28;20188;-74
2023/09/15 07:20:41;;;;;;;7.50;4.70;;;17.50;99.90;;;;;;4989442;28;20439;-76
2023/09/15 07:23:07;;;;;;;6.07;5.00;;;17.60;99.90;;;;;;4991215;28;20773;-75
2023/09/15 07:25:32;;;;;;;6.47;4.47;;;17.70;99.90;;;;;;5012092;28;20427;-75
2023/09/15 07:27:58;;;;;;;6.00;4.60;;;17.70;99.90;;;;;;5018207;28;20210;-74
2023/09/15 07:30:25;;;;;;;6.00;5.00;;;17.80;99.90;;;;;;5009732;28;20237;-75
2023/09/15 07:32:51;;;;;;;5.67;5.10;;;17.90;99.90;;;;;;5010376;28;20212;-75
2023/09/15 07:35:17;;;;;;;9.20;5.90;;;17.90;99.90;;;;;;5018635;28;20474;-74
2023/09/15 07:37:43;;;;;;;4.80;3.97;;;17.90;99.90;;;;;;5015414;28;21715;-74
2023/09/15 07:40:09;;;;;;;6.37;4.60;;;18.00;99.90;;;;;;5015049;28;20564;-74
2023/09/15 07:42:35;;;;;;;7.47;4.90;;;18.10;99.90;;;;;;5025125;28;20311;-74
2023/09/15 07:45:02;;;;;;;8.53;6.93;;;18.20;99.90;;;;;;5015923;28;20446;-77
2023/09/15 07:47:28;;;;;;;4.93;4.43;;;18.20;99.90;;;;;;5014231;28;20456;-76
2023/09/15 07:49:53;;;;;;;5.20;4.53;;;18.20;99.90;;;;;;5029101;28;20453;-77
2023/09/15 07:52:19;;;;;;;12.50;5.23;;;18.30;99.90;;;;;;5014515;28;20227;-76
2023/09/15 07:54:45;;;;;;;5.90;5.07;;;18.40;99.90;;;;;;5025829;28;20212;-75
2023/09/15 07:57:11;;;;;;;8.60;4.53;;;18.40;99.90;;;;;;5011993;28;20271;-75
2023/09/15 07:59:37;;;;;;;6.27;4.67;;;18.50;99.90;;;;;;5011646;28;20177;-75
2023/09/15 08:02:06;;;;;;;6.23;4.87;;;18.50;99.90;;;;;;5010474;28;20483;-75
2023/09/15 08:04:31;;;;;;;5.43;4.60;;;18.60;99.90;;;;;;5014855;28;20192;-74
2023/09/15 08:06:57;;;;;;;13.20;6.33;;;18.60;99.90;;;;;;5011330;28;20509;-76
2023/09/15 08:09:23;;;;;;;6.57;5.50;;;18.70;99.90;;;;;;4998444;28;20184;-75
2023/09/15 08:11:48;;;;;;;6.43;4.67;;;18.70;99.90;;;;;;5017542;28;20217;-76
2023/09/15 08:14:14;;;;;;;6.70;5.27;;;18.80;99.90;;;;;;5018263;28;20212;-74
2023/09/15 08:16:40;;;;;;;7.20;4.73;;;18.80;99.90;;;;;;5016122;28;20185;-74
2023/09/15 08:19:06;;;;;;;7.83;4.23;;;18.90;99.90;;;;;;5009387;28;20267;-75
2023/09/15 08:21:32;;;;;;;6.30;4.63;;;19.00;99.90;;;;;;5013374;28;20217;-74
2023/09/15 08:23:58;;;;;;;6.70;4.73;;;19.10;99.90;;;;;;5014920;28;20537;-73
2023/09/15 08:26:25;;;;;;;7.53;5.87;;;19.20;99.90;;;;;;5010117;28;20181;-73
2023/09/15 08:28:51;;;;;;;7.10;4.57;;;19.20;99.90;;;;;;5014791;28;20191;-73
2023/09/15 08:31:16;;;;;;;6.20;4.70;;;19.30;99.90;;;;;;4997080;28;20460;-75
2023/09/15 08:33:42;;;;;;;7.63;4.83;;;19.40;99.90;;;;;;5016044;28;20206;-74
2023/09/15 08:36:07;;;;;;;5.70;5.10;;;19.40;99.90;;;;;;5015212;28;20226;-74
2023/09/15 08:38:33;;;;;;;4.97;4.43;;;19.50;99.90;;;;;;5015029;28;20184;-75
2023/09/15 08:41:09;;;;;;;7.73;5.00;;;19.50;99.90;;;;;;5013665;28;20184;-74
2023/09/15 08:43:36;;;;;;;6.60;5.47;;;19.60;99.90;;;;;;4998116;28;20510;-74
2023/09/15 08:46:03;;;;;;;6.10;5.33;;;19.70;99.90;;;;;;5016008;28;20430;-74
2023/09/15 08:48:32;;;;;;;6.20;5.00;;;19.70;99.90;;;;;;4994731;28;20465;-76
2023/09/15 08:50:58;;;;;;;9.00;5.10;;;19.80;99.90;;;;;;5021245;28;20410;-75
2023/09/15 08:53:24;;;;;;;10.03;4.43;;;19.90;99.90;;;;;;5020961;28;20888;-74
2023/09/15 08:55:50;;;;;;;13.43;7.97;;;20.00;99.90;;;;;;5021804;28;20459;-74
2023/09/15 08:58:17;;;;;;;8.33;7.30;;;20.00;99.90;;;;;;5022089;28;20516;-74
2023/09/15 09:00:42;;;;;;;8.20;6.00;;;20.10;99.90;;;;;;5020083;28;20423;-72
2023/09/15 09:03:12;;;;;;;5.93;5.30;;;20.10;99.90;;;;;;5015991;28;20508;-74
2023/09/15 09:05:38;;;;;;;9.40;5.57;;;20.20;99.90;;;;;;5001031;28;20187;-74
2023/09/15 09:08:05;;;;;;;11.10;6.10;;;20.30;99.90;;;;;;5018771;28;20443;-74
2023/09/15 09:10:30;;;;;;;7.30;5.53;;;20.40;99.90;;;;;;5015734;28;20534;-74
2023/09/15 09:12:56;;;;;;;6.70;5.37;;;20.50;99.90;;;;;;5012980;28;20486;-74
2023/09/15 09:15:25;;;;;;;7.30;6.60;;;20.50;99.90;;;;;;5014425;28;20208;-74
2023/09/15 09:17:50;;;;;;;10.07;7.67;;;20.60;99.90;;;;;;5000653;28;20191;-75
2023/09/15 09:20:29;;;;;;;6.83;5.70;;;20.70;99.90;;;;;;5015776;28;20444;-73
2023/09/15 09:22:55;;;;;;;6.20;5.17;;;20.80;99.90;;;;;;5012811;28;20283;-75
2023/09/15 09:25:33;;;;;;;5.93;5.23;;;20.90;99.90;;;;;;5003104;28;21047;-76
2023/09/15 09:28:00;;;;;;;5.40;4.90;;;20.90;99.90;;;;;;5019544;28;20180;-74
2023/09/15 09:30:29;;;;;;;4.90;4.40;;;21.00;99.90;;;;;;5031978;28;20467;-77
2023/09/15 09:32:58;;;;;;;6.80;4.33;;;21.00;99.90;;;;;;5015947;28;20470;-75
2023/09/15 09:35:25;;;;;;;6.63;4.90;;;21.10;99.90;;;;;;5020860;28;21564;-75
2023/09/15 09:37:53;;;;;;;7.00;6.00;;;21.20;99.90;;;;;;5017409;28;20431;-77
2023/09/15 09:40:21;;;;;;;5.00;4.47;;;21.20;99.90;;;;;;5018084;28;20426;-74
2023/09/15 09:42:51;;;;;;;5.87;5.23;;;21.40;99.90;;;;;;5010109;28;20469;-76
2023/09/15 09:45:17;;;;;;;6.57;4.93;;;21.50;99.90;;;;;;5013378;28;20462;-76
2023/09/15 09:47:43;;;;;;;8.00;5.43;;;21.50;99.90;;;;;;5010921;28;20442;-77
2023/09/15 09:50:10;;;;;;;9.17;5.07;;;21.60;99.90;;;;;;5008698;28;20904;-78
2023/09/15 09:52:37;;;;;;;6.83;4.80;;;21.70;99.90;;;;;;5005773;28;20524;-76
2023/09/15 09:55:10;;;;;;;8.33;4.70;;;21.80;99.90;;;;;;5013361;28;20466;-76
2023/09/15 09:57:39;;;;;;;7.10;5.07;;;21.80;99.90;;;;;;5009043;28;20439;-75
2023/09/15 10:00:09;;;;;;;5.27;4.53;;;21.90;99.90;;;;;;5026776;28;20447;-75
2023/09/15 10:02:42;;;;;;;5.93;4.97;;;22.00;99.90;;;;;;5007563;28;20542;-75
2023/09/15 10:05:08;;;;;;;6.07;4.73;;;22.10;99.90;;;;;;5011646;28;20451;-76
2023/09/15 10:07:34;;;;;;;7.33;5.43;;;22.20;99.90;;;;;;5008471;28;20509;-75
2023/09/15 10:10:03;;;;;;;5.43;4.93;;;22.20;99.90;;;;;;5005773;28;20202;-75
2023/09/15 10:12:29;;;;;;;6.90;5.00;;;22.30;99.90;;;;;;5003766;28;20542;-75
2023/09/15 10:14:55;;;;;;;6.43;4.70;;;22.40;99.90;;;;;;5009079;28;20511;-75
2023/09/15 10:17:22;;;;;;;6.13;4.83;;;22.50;99.90;;;;;;4996104;28;20473;-75
2023/09/15 10:19:48;;;;;;;5.13;4.63;;;22.60;99.90;;;;;;5009280;28;20450;-75
2023/09/15 10:22:16;;;;;;;7.60;4.73;;;22.70;99.90;;;;;;5007592;28;20547;-75
2023/09/15 10:24:47;;;;;;;12.87;4.90;;;22.70;99.90;;;;;;5009649;28;20442;-75
2023/09/15 10:27:14;;;;;;;7.10;4.90;;;22.80;99.90;;;;;;5013342;28;20450;-74
2023/09/15 10:29:44;;;;;;;6.73;5.57;;;22.90;99.90;;;;;;5018202;28;20445;-75
2023/09/15 10:32:15;;;;;;;5.70;4.53;;;22.90;99.90;;;;;;5011399;28;20474;-74
2023/09/15 10:34:41;;;;;;;5.30;4.80;;;23.00;99.90;;;;;;5007672;28;20851;-75
2023/09/15 10:37:09;;;;;;;6.33;5.17;;;23.10;99.90;;;;;;5002594;28;20424;-74
2023/09/15 10:39:40;;;;;;;5.60;5.10;;;23.10;99.90;;;;;;5013073;28;20211;-73
2023/09/15 10:42:13;;;;;;;8.00;5.13;;;23.20;99.90;;;;;;5011168;28;20454;-75
2023/09/15 10:44:42;;;;;;;6.10;4.57;;;23.30;99.90;;;;;;4998361;28;20435;-75
2023/09/15 10:47:18;;;;;;;5.30;4.70;;;23.40;99.90;;;;;;5012603;28;20435;-76
2023/09/15 10:49:54;;;;;;;7.13;4.80;;;23.50;99.90;;;;;;5017813;28;20434;-76
2023/09/15 10:52:33;;;;;;;5.13;4.60;;;23.60;99.90;;;;;;5016520;28;20466;-76
2023/09/15 10:54:59;;;;;;;9.10;5.90;;;23.60;99.90;;;;;;5014304;28;21615;-76
2023/09/15 10:57:25;;;;;;;5.20;4.70;;;23.70;99.90;;;;;;5022511;28;21126;-76
2023/09/15 10:59:54;;;;;;;9.00;5.77;;;23.80;99.90;;;;;;5019697;28;21258;-77
2023/09/15 11:02:20;;;;;;;4.73;3.93;;;23.90;99.90;;;;;;5018157;28;20443;-75
2023/09/15 11:04:48;;;;;;;9.10;5.23;;;24.00;99.90;;;;;;5019054;28;20431;-75
2023/09/15 11:07:17;;;;;;;6.27;4.90;;;24.10;99.90;;;;;;5019076;28;20443;-76
2023/09/15 11:09:43;;;;;;;5.00;4.37;;;24.10;99.90;;;;;;5016317;28;20443;-76
2023/09/15 11:12:13;;;;;;;5.20;4.47;;;24.30;99.90;;;;;;4996088;28;20455;-76
2023/09/15 11:14:39;;;;;;;10.70;4.30;;;24.30;99.90;;;;;;5002469;28;20465;-76
2023/09/15 11:17:08;;;;;;;6.53;4.87;;;24.40;99.90;;;;;;5001673;28;20470;-77
2023/09/15 11:19:36;;;;;;;5.00;4.50;;;24.40;99.90;;;;;;5020853;28;21187;-76
2023/09/15 11:22:03;;;;;;;5.07;4.50;;;24.50;99.90;;;;;;5016970;28;20482;-76
2023/09/15 11:24:30;;;;;;;5.33;4.83;;;24.60;99.90;;;;;;5015629;28;20435;-77
2023/09/15 11:26:56;;;;;;;5.87;5.30;;;24.70;99.90;;;;;;5020975;28;20894;-77
2023/09/15 11:29:26;;;;;;;4.93;4.50;;;24.80;99.90;;;;;;5015082;28;22018;-75
2023/09/15 11:31:53;;;;;;;5.73;5.13;;;24.90;99.90;;;;;;4998588;28;20842;-76
2023/09/15 11:34:19;;;;;;;6.30;4.67;;;25.00;99.90;;;;;;5001234;28;20435;-76
2023/09/15 11:36:45;;;;;;;6.10;4.80;;;25.00;99.90;;;;;;5016328;28;20432;-76
2023/09/15 11:39:14;;;;;;;7.93;4.57;;;25.10;99.90;;;;;;5034745;28;20816;-75
2023/09/15 11:41:54;;;;;;;6.27;5.67;;;25.20;99.90;;;;;;4981817;28;20467;-76
2023/09/15 11:44:28;;;;;;;6.10;4.87;;;25.30;99.90;;;;;;5015267;28;20467;-75
2023/09/15 11:46:56;;;;;;;6.67;4.17;;;25.40;99.90;;;;;;5018434;28;20805;-75
2023/09/15 11:49:23;;;;;;;7.30;4.70;;;25.60;99.90;;;;;;5011629;28;20443;-75
2023/09/15 11:51:49;;;;;;;5.80;4.57;;;25.80;99.90;;;;;;5016997;28;20450;-75
2023/09/15 11:54:15;;;;;;;5.10;4.60;;;26.00;99.90;;;;;;5017290;28;20411;-75
2023/09/15 11:56:42;;;;;;;6.00;5.20;;;26.20;99.90;;;;;;5019364;28;20935;-75
2023/09/15 11:59:08;;;;;;;5.37;4.87;;;26.50;99.90;;;;;;5029328;28;20439;-75
2023/09/15 12:01:34;;;;;;;6.27;5.20;;;27.00;99.90;;;;;;5015483;28;20446;-75
2023/09/15 12:04:01;;;;;;;5.93;4.90;;;27.70;99.90;;;;;;5015760;28;21182;-75
2023/09/15 12:06:27;;;;;;;5.00;4.50;;;28.40;99.90;;;;;;5001447;28;20466;-75
2023/09/15 12:08:53;;;;;;;5.30;4.80;;;29.10;99.90;;;;;;5013922;28;20439;-75
2023/09/15 12:11:19;;;;;;;5.03;4.63;;;29.60;99.90;;;;;;5018576;28;20443;-75
2023/09/15 12:13:52;;;;;;;4.83;4.37;;;30.10;99.90;;;;;;4997592;28;20442;-75
2023/09/15 12:16:27;;;;;;;7.87;4.40;;;30.60;99.90;;;;;;5018663;28;20466;-75
2023/09/15 12:18:54;;;;;;;5.87;4.80;;;31.00;98.70;;;;;;5018744;28;20422;-76
2023/09/15 12:21:24;;;;;;;5.37;4.53;;;31.30;96.90;;;;;;4995759;28;20802;-75
2023/09/15 12:23:51;;;;;;;5.00;4.47;;;31.60;95.70;;;;;;5013121;28;21028;-75
2023/09/15 12:26:17;;;;;;;5.57;4.73;;;31.80;94.10;;;;;;5013661;28;20432;-75
2023/09/15 12:28:43;;;;;;;5.20;4.70;;;32.00;92.90;;;;;;5012381;28;20527;-75
2023/09/15 12:31:20;;;;;;;5.43;4.93;;;32.00;91.90;;;;;;5013797;28;20537;-75
2023/09/15 12:33:46;;;;;;;5.17;4.77;;;32.20;91.20;;;;;;5015553;28;20238;-75
2023/09/15 12:36:13;;;;;;;6.30;5.00;;;32.20;90.50;;;;;;5016907;28;20466;-75
2023/09/15 12:38:39;;;;;;;6.00;5.40;;;32.10;88.70;;;;;;5013365;28;20243;-74
2023/09/15 12:41:05;;;;;;;5.43;4.90;;;32.30;88.60;;;;;;5017426;28;20486;-75
2023/09/15 12:43:30;;;;;;;5.53;5.03;;;32.40;87.40;;;;;;5021706;28;20454;-75
2023/09/15 12:45:56;;;;;;;4.60;4.20;;;32.40;86.60;;;;;;4979724;28;21520;-75